Time;durP1;ratioP1;P1;durP2;ratioP2;P2;SDS_P1;SDS_P2;PMS_P1;PMS_P2;Temp;Humidity;BMP_temperature;BMP_pressure;BME280_temperature;BME280_humidity;BME280_pressure;Samples;Min_cycle;Max_cycle;Signal;HPM_P1;HPM_P2
2024/02/29 00:00:20;;;;;;;11.98;5.60;;;;;;;7.86;85.96;101123.41;5091536;28;20035;-68
2024/02/29 00:02:45;;;;;;;15.40;6.15;;;;;;;7.83;85.56;101120.59;5075888;28;20048;-68
2024/02/29 00:05:12;;;;;;;18.20;6.05;;;;;;;7.83;85.87;101123.25;5092465;28;20090;-67
2024/02/29 00:07:41;;;;;;;19.73;5.60;;;;;;;7.73;86.72;101129.00;5091496;28;20032;-68
2024/02/29 00:10:07;;;;;;;15.35;6.05;;;;;;;7.85;85.81;101121.84;5092580;28;20039;-68
2024/02/29 00:12:32;;;;;;;19.88;5.57;;;;;;;7.89;85.68;101121.97;5091295;28;20050;-68
2024/02/29 00:14:58;;;;;;;17.25;6.18;;;;;;;7.91;84.78;101123.22;5095796;28;20112;-68
2024/02/29 00:17:23;;;;;;;16.80;5.53;;;;;;;7.90;84.44;101124.31;5096613;28;20480;-67
2024/02/29 00:19:48;;;;;;;18.98;7.10;;;;;;;7.91;83.99;101119.75;5096731;28;20035;-68
2024/02/29 00:22:14;;;;;;;11.88;4.90;;;;;;;7.78;84.66;101113.50;5096381;28;20557;-68
2024/02/29 00:24:39;;;;;;;15.13;6.00;;;;;;;7.84;84.58;101108.75;5089811;28;20503;-68
2024/02/29 00:27:06;;;;;;;16.05;5.55;;;;;;;7.80;84.65;101113.19;5094743;28;20050;-68
2024/02/29 00:29:32;;;;;;;23.55;6.20;;;;;;;7.66;84.26;101107.28;5093138;28;20123;-69
2024/02/29 00:32:00;;;;;;;12.93;5.97;;;;;;;7.83;83.40;101109.84;5096555;28;21298;-68
2024/02/29 00:34:28;;;;;;;24.40;6.82;;;;;;;7.69;83.76;101117.34;5093740;28;20114;-68
2024/02/29 00:36:53;;;;;;;23.08;7.10;;;;;;;7.68;84.61;101105.06;5096426;28;20039;-68
2024/02/29 00:39:19;;;;;;;18.50;5.75;;;;;;;7.76;84.09;101107.69;5094531;28;20044;-68
2024/02/29 00:41:44;;;;;;;21.35;7.07;;;;;;;7.58;83.59;101100.06;5094961;28;20032;-68
2024/02/29 00:44:10;;;;;;;16.85;6.57;;;;;;;7.60;83.75;101089.81;5094571;28;20058;-68
2024/02/29 00:46:38;;;;;;;20.70;7.22;;;;;;;7.64;83.15;101091.53;5095727;28;20020;-68
2024/02/29 00:49:04;;;;;;;18.77;5.07;;;;;;;7.66;83.51;101088.53;5091770;28;20612;-68
2024/02/29 00:51:29;;;;;;;16.55;7.65;;;;;;;7.57;83.11;101090.47;5094814;28;20048;-68
2024/02/29 00:53:55;;;;;;;23.15;6.65;;;;;;;7.50;84.29;101082.94;5096166;28;20023;-68
2024/02/29 00:56:20;;;;;;;18.33;6.28;;;;;;;7.48;84.46;101087.81;5095996;28;20027;-68
2024/02/29 00:58:46;;;;;;;26.70;8.07;;;;;;;7.53;83.66;101084.94;5096533;28;20081;-67
2024/02/29 01:01:12;;;;;;;17.73;7.63;;;;;;;7.53;83.66;101084.94;5093561;28;20047;-68
2024/02/29 01:03:37;;;;;;;23.85;8.13;;;;;;;7.37;83.66;101075.13;5100078;28;20085;-68
2024/02/29 01:06:04;;;;;;;20.60;6.63;;;;;;;7.06;83.92;101062.81;5096592;28;20396;-68
2024/02/29 01:08:30;;;;;;;13.88;6.20;;;;;;;7.10;85.12;101061.03;5093169;28;20463;-68
2024/02/29 01:10:55;;;;;;;18.02;5.18;;;;;;;7.01;85.16;101060.28;5091805;28;20052;-68
2024/02/29 01:13:21;;;;;;;19.60;5.45;;;;;;;7.21;84.52;101054.22;5094057;28;20028;-68
2024/02/29 01:15:47;;;;;;;23.83;7.43;;;;;;;7.27;83.25;101050.28;5097487;28;20065;-68
2024/02/29 01:18:13;;;;;;;17.50;7.00;;;;;;;7.08;84.58;101041.81;5096980;28;20035;-68
2024/02/29 01:20:38;;;;;;;19.52;6.53;;;;;;;7.17;83.68;101050.63;5097205;28;20031;-68
2024/02/29 01:23:04;;;;;;;6.65;3.60;;;;;;;7.17;83.73;101041.78;5096109;28;20039;-68
2024/02/29 01:25:29;;;;;;;20.63;6.70;;;;;;;6.88;84.45;101047.91;5094757;28;20043;-68
2024/02/29 01:27:54;;;;;;;15.50;5.10;;;;;;;7.06;84.45;101049.41;5094326;28;20043;-68
2024/02/29 01:30:20;;;;;;;15.98;6.38;;;;;;;7.11;83.40;101032.38;5110289;27;20238;-68
2024/02/29 01:32:45;;;;;;;19.25;5.95;;;;;;;7.12;83.31;101036.63;5090274;28;20104;-68
2024/02/29 01:35:11;;;;;;;23.50;6.10;;;;;;;7.03;83.61;101036.66;5094676;28;20032;-68
2024/02/29 01:37:37;;;;;;;19.17;6.72;;;;;;;6.95;83.45;101026.75;5092122;28;20043;-68
2024/02/29 01:40:04;;;;;;;15.02;6.07;;;;;;;6.82;83.33;101024.28;5094428;28;20484;-68
2024/02/29 01:42:29;;;;;;;16.02;6.88;;;;;;;6.89;84.27;101017.34;5094151;28;20392;-68
2024/02/29 01:44:55;;;;;;;13.95;6.47;;;;;;;6.79;84.67;101014.25;5093709;28;20028;-68
2024/02/29 01:47:26;;;;;;;22.42;7.32;;;;;;;6.86;83.84;101015.31;5094951;28;20122;-68
2024/02/29 01:49:56;;;;;;;18.88;6.60;;;;;;;6.76;83.70;101004.94;5094634;28;20101;-68
2024/02/29 01:52:24;;;;;;;27.05;7.18;;;;;;;6.69;84.42;101004.66;5092319;28;20048;-68
2024/02/29 01:54:50;;;;;;;16.38;6.32;;;;;;;6.76;84.73;100996.91;5095727;28;20035;-68
2024/02/29 01:57:16;;;;;;;27.33;5.65;;;;;;;6.82;83.87;101005.56;5093035;28;20093;-68
2024/02/29 01:59:42;;;;;;;17.60;6.20;;;;;;;6.57;84.46;101004.53;5093420;28;20031;-68
2024/02/29 02:02:08;;;;;;;20.35;6.38;;;;;;;6.55;85.30;101006.75;5092799;28;20040;-67
2024/02/29 02:04:33;;;;;;;29.02;6.40;;;;;;;6.78;84.20;100999.28;5075649;28;20099;-68
2024/02/29 02:07:01;;;;;;;16.48;7.60;;;;;;;6.55;84.70;100990.69;5094161;28;20051;-68
2024/02/29 02:09:27;;;;;;;15.40;6.25;;;;;;;6.53;84.83;100992.91;5089869;28;20032;-68
2024/02/29 02:11:52;;;;;;;15.50;5.57;;;;;;;6.49;85.38;100980.47;5095855;28;20429;-68
2024/02/29 02:14:18;;;;;;;9.95;5.13;;;;;;;6.63;84.72;100981.88;5093457;28;20039;-68
2024/02/29 02:16:43;;;;;;;24.30;6.82;;;;;;;6.57;83.77;100982.34;5094927;28;20093;-68
2024/02/29 02:19:13;;;;;;;16.52;6.13;;;;;;;6.70;84.34;100978.69;5090524;28;20035;-68
2024/02/29 02:21:39;;;;;;;15.15;6.65;;;;;;;6.71;84.21;100972.22;5086044;28;20055;-68
2024/02/29 02:24:05;;;;;;;22.48;7.05;;;;;;;6.65;84.45;100966.28;5093191;28;20031;-68
2024/02/29 02:26:31;;;;;;;16.92;6.75;;;;;;;6.74;83.68;100966.22;5123661;27;20052;-68
2024/02/29 02:28:56;;;;;;;18.92;8.23;;;;;;;6.69;83.63;100959.19;5093521;28;20136;-68
2024/02/29 02:31:22;;;;;;;16.60;5.78;;;;;;;6.66;83.46;100959.03;5094638;28;20036;-68
2024/02/29 02:33:47;;;;;;;11.27;5.85;;;;;;;6.54;84.17;100966.94;5094613;28;20055;-67
2024/02/29 02:36:12;;;;;;;12.95;5.93;;;;;;;6.43;84.06;100958.47;5090681;28;20055;-68
2024/02/29 02:38:38;;;;;;;23.92;6.40;;;;;;;6.34;85.98;100958.50;5088459;28;20055;-67
2024/02/29 02:41:03;;;;;;;23.38;5.95;;;;;;;6.50;84.84;100958.78;5093533;28;21958;-68
2024/02/29 02:43:29;;;;;;;13.98;6.47;;;;;;;6.48;84.90;100963.66;5092508;28;21801;-68
2024/02/29 02:45:55;;;;;;;17.83;5.25;;;;;;;6.55;84.62;100942.53;5094055;28;20035;-68
2024/02/29 02:48:20;;;;;;;24.90;7.97;;;;;;;6.48;84.67;100944.94;5095462;28;20035;-68
2024/02/29 02:50:46;;;;;;;23.25;6.18;;;;;;;6.50;84.30;100931.25;5094588;28;20043;-68
2024/02/29 02:53:12;;;;;;;12.07;5.95;;;;;;;6.46;84.48;100930.31;5087287;28;20480;-67
2024/02/29 02:55:37;;;;;;;19.25;6.22;;;;;;;6.28;84.39;100930.38;5124450;27;20080;-68
2024/02/29 02:58:03;;;;;;;13.60;5.13;;;;;;;6.16;85.79;100924.09;5092809;28;20027;-68
2024/02/29 03:00:28;;;;;;;17.55;5.78;;;;;;;6.42;85.12;100916.78;5092276;28;20023;-68
2024/02/29 03:02:53;;;;;;;13.68;5.38;;;;;;;6.47;84.39;100913.94;5092467;28;20484;-67
2024/02/29 03:05:20;;;;;;;17.00;5.38;;;;;;;6.31;85.17;100904.84;5094178;28;20031;-68
2024/02/29 03:07:45;;;;;;;17.25;6.72;;;;;;;6.29;85.38;100907.09;5095236;28;20069;-68
2024/02/29 03:10:11;;;;;;;20.30;6.82;;;;;;;6.45;84.45;100910.78;5091259;28;20092;-67
2024/02/29 03:12:39;;;;;;;19.17;7.47;;;;;;;6.55;83.66;100910.44;5094025;28;20488;-68
2024/02/29 03:15:05;;;;;;;21.60;6.80;;;;;;;6.45;84.00;100900.09;5091419;28;20036;-68
2024/02/29 03:17:31;;;;;;;19.27;6.25;;;;;;;6.43;83.92;100904.97;5093896;28;20100;-68
2024/02/29 03:19:56;;;;;;;21.70;7.57;;;;;;;6.42;84.15;100900.75;5090378;28;20065;-68
2024/02/29 03:22:22;;;;;;;14.48;5.85;;;;;;;6.44;83.67;100895.84;5097903;28;20023;-68
2024/02/29 03:24:47;;;;;;;21.98;7.22;;;;;;;6.42;83.84;100891.94;5092882;28;20035;-68
2024/02/29 03:27:13;;;;;;;15.70;6.28;;;;;;;6.37;84.34;100891.00;5092077;28;20076;-68
2024/02/29 03:29:39;;;;;;;18.10;6.07;;;;;;;6.37;84.26;100882.19;5075851;28;20150;-68
2024/02/29 03:32:04;;;;;;;21.60;6.43;;;;;;;6.27;84.46;100874.53;5091353;28;20054;-68
2024/02/29 03:34:30;;;;;;;23.55;7.47;;;;;;;6.36;84.01;100875.28;5088865;28;20024;-68
2024/02/29 03:36:55;;;;;;;20.92;6.55;;;;;;;6.44;83.37;100877.13;5094476;28;20036;-68
2024/02/29 03:39:21;;;;;;;18.58;6.50;;;;;;;6.27;84.25;100877.97;5091908;28;20038;-68
2024/02/29 03:41:46;;;;;;;11.38;4.60;;;;;;;6.22;84.71;100874.69;5091710;28;20097;-68
2024/02/29 03:44:12;;;;;;;16.63;6.82;;;;;;;6.39;83.97;100874.63;5092630;28;20492;-68
2024/02/29 03:46:37;;;;;;;17.60;7.10;;;;;;;6.47;83.38;100870.34;5073451;28;20069;-68
2024/02/29 03:49:02;;;;;;;19.25;6.80;;;;;;;6.30;83.93;100863.97;5091941;28;20144;-68
2024/02/29 03:51:28;;;;;;;23.40;7.97;;;;;;;6.48;82.67;100866.56;5093535;28;20102;-68
2024/02/29 03:53:53;;;;;;;15.68;5.93;;;;;;;6.27;84.42;100866.50;5093362;28;20032;-68
2024/02/29 03:56:20;;;;;;;12.60;5.97;;;;;;;6.25;84.07;100860.69;5092730;28;20411;-68
2024/02/29 03:58:45;;;;;;;20.90;6.55;;;;;;;6.41;82.75;100856.38;5087618;28;20400;-68
2024/02/29 04:01:11;;;;;;;17.80;6.65;;;;;;;6.21;83.40;100857.09;5066347;28;20024;-68
2024/02/29 04:03:40;;;;;;;20.27;6.80;;;;;;;6.05;84.13;100840.00;5089836;28;20039;-68
2024/02/29 04:06:06;;;;;;;14.70;6.05;;;;;;;6.07;84.14;100843.94;5089220;28;20107;-68
2024/02/29 04:08:32;;;;;;;22.58;7.45;;;;;;;6.25;83.64;100842.75;5092448;28;20483;-68
2024/02/29 04:10:58;;;;;;;10.75;4.60;;;;;;;6.24;83.60;100841.19;5093416;28;20098;-68
2024/02/29 04:13:24;;;;;;;11.27;5.60;;;;;;;6.02;83.92;100837.97;5089905;28;20035;-68
2024/02/29 04:15:49;;;;;;;14.75;5.75;;;;;;;6.13;84.10;100828.50;5090752;28;20030;-68
2024/02/29 04:18:15;;;;;;;26.55;7.13;;;;;;;6.14;84.77;100825.50;5075951;28;20024;-68
2024/02/29 04:20:40;;;;;;;12.98;6.00;;;;;;;6.17;83.91;100824.09;5073449;28;20031;-68
2024/02/29 04:23:05;;;;;;;22.90;6.65;;;;;;;6.02;83.80;100824.63;5088052;28;20055;-68
2024/02/29 04:25:31;;;;;;;12.45;5.20;;;;;;;6.14;83.49;100825.50;5092028;28;20412;-68
2024/02/29 04:27:57;;;;;;;15.73;5.30;;;;;;;6.11;83.96;100822.69;5090172;28;20071;-68
2024/02/29 04:30:23;;;;;;;17.85;5.38;;;;;;;5.98;84.00;100821.78;5091341;28;20476;-68
2024/02/29 04:32:49;;;;;;;16.13;5.80;;;;;;;6.01;84.35;100815.81;5096826;28;20032;-68
2024/02/29 04:35:14;;;;;;;19.30;7.05;;;;;;;6.03;84.31;100802.91;5087978;28;20412;-68
2024/02/29 04:37:40;;;;;;;9.68;4.28;;;;;;;5.97;84.39;100809.53;5093226;28;20072;-68
2024/02/29 04:40:07;;;;;;;17.70;6.35;;;;;;;5.92;84.56;100800.91;5086467;28;20089;-68
2024/02/29 04:42:33;;;;;;;14.77;5.75;;;;;;;5.92;85.18;100803.56;5090569;28;20058;-68
2024/02/29 04:44:59;;;;;;;17.52;6.38;;;;;;;5.90;84.27;100798.56;5092751;28;20115;-68
2024/02/29 04:47:25;;;;;;;21.40;6.65;;;;;;;5.90;85.41;100800.44;5092890;28;20118;-68
2024/02/29 04:49:51;;;;;;;17.13;6.10;;;;;;;6.06;84.02;100793.44;5094835;28;20054;-68
2024/02/29 04:52:17;;;;;;;16.88;6.03;;;;;;;5.80;84.54;100787.38;5094635;28;20032;-68
2024/02/29 04:54:43;;;;;;;13.52;5.50;;;;;;;5.98;84.12;100787.03;5091541;28;20480;-68
2024/02/29 04:57:09;;;;;;;28.30;7.15;;;;;;;5.90;84.31;100787.09;5091313;28;20042;-68
2024/02/29 04:59:34;;;;;;;14.05;5.35;;;;;;;5.91;84.42;100791.31;5090360;28;20042;-68
2024/02/29 05:01:59;;;;;;;12.18;5.07;;;;;;;6.00;83.97;100786.72;5093431;28;20068;-68
2024/02/29 05:04:25;;;;;;;17.02;5.22;;;;;;;5.93;83.86;100794.44;5093616;28;20028;-68
2024/02/29 05:06:50;;;;;;;12.30;5.28;;;;;;;5.88;85.14;100787.41;5095110;28;20575;-68
2024/02/29 05:09:16;;;;;;;19.38;5.82;;;;;;;5.99;84.11;100787.81;5092698;28;20579;-68
2024/02/29 05:11:42;;;;;;;13.63;5.78;;;;;;;6.04;83.62;100779.66;5091923;28;20020;-68
2024/02/29 05:14:10;;;;;;;21.50;6.68;;;;;;;5.91;84.26;100781.41;5098199;28;20369;-68
2024/02/29 05:16:35;;;;;;;13.68;5.10;;;;;;;5.90;84.56;100771.84;5092511;28;20119;-68
2024/02/29 05:19:01;;;;;;;13.45;5.93;;;;;;;5.95;83.81;100779.66;5096886;28;20141;-68
2024/02/29 05:21:26;;;;;;;21.70;6.38;;;;;;;5.97;83.84;100780.13;5098606;28;20046;-68
2024/02/29 05:23:52;;;;;;;21.35;7.60;;;;;;;6.00;83.63;100771.47;5093829;28;20032;-68
2024/02/29 05:26:18;;;;;;;13.55;4.15;;;;;;;5.89;83.54;100772.13;5092435;28;20084;-68
2024/02/29 05:28:44;;;;;;;17.58;6.65;;;;;;;6.05;83.44;100768.63;5090363;28;20039;-68
2024/02/29 05:31:10;;;;;;;9.98;3.75;;;;;;;5.84;83.28;100758.97;5090809;28;20042;-68
2024/02/29 05:33:37;;;;;;;16.95;6.70;;;;;;;5.77;84.09;100759.41;5075938;28;20492;-68
2024/02/29 05:36:02;;;;;;;15.45;6.35;;;;;;;5.79;84.57;100759.13;5094039;28;20031;-68
2024/02/29 05:38:27;;;;;;;14.40;5.38;;;;;;;5.74;84.20;100753.94;5096168;28;20412;-68
2024/02/29 05:40:53;;;;;;;13.38;5.40;;;;;;;5.70;84.22;100761.81;5093169;28;20035;-68
2024/02/29 05:43:18;;;;;;;20.33;5.18;;;;;;;5.82;83.58;100766.47;5091206;28;20044;-68
2024/02/29 05:45:44;;;;;;;17.02;5.80;;;;;;;5.76;83.79;100762.41;5086597;28;20081;-68
2024/02/29 05:48:09;;;;;;;2.42;1.80;;;;;;;5.74;84.20;100754.72;5090030;28;20599;-68
2024/02/29 05:50:35;;;;;;;10.82;5.65;;;;;;;5.68;84.07;100749.88;5073536;28;20032;-68
2024/02/29 05:53:01;;;;;;;16.13;6.10;;;;;;;5.51;85.04;100748.03;5092501;28;20032;-68
2024/02/29 05:55:27;;;;;;;11.18;6.63;;;;;;;5.56;84.53;100745.19;5088721;28;20416;-68
2024/02/29 05:57:52;;;;;;;19.15;5.57;;;;;;;5.37;85.68;100739.44;5091473;28;20042;-68
2024/02/29 06:00:19;;;;;;;15.95;5.50;;;;;;;5.42;85.66;100748.03;5087689;28;20028;-68
2024/02/29 06:02:45;;;;;;;21.30;5.10;;;;;;;5.64;85.12;100746.25;5089063;28;20063;-68
2024/02/29 06:05:10;;;;;;;8.73;4.82;;;;;;;5.35;85.61;100745.09;5088779;28;20067;-68
2024/02/29 06:07:38;;;;;;;19.42;5.35;;;;;;;5.73;84.58;100747.03;5090153;28;20036;-68
2024/02/29 06:10:04;;;;;;;14.60;5.88;;;;;;;5.76;83.89;100739.16;5090372;28;20027;-68
2024/02/29 06:12:30;;;;;;;16.25;6.10;;;;;;;5.64;84.53;100746.25;5089403;28;20023;-68
2024/02/29 06:14:57;;;;;;;14.45;4.97;;;;;;;5.53;84.48;100738.59;5085893;28;20539;-68
2024/02/29 06:17:22;;;;;;;7.78;4.13;;;;;;;5.56;84.96;100739.84;5086397;28;20025;-69
2024/02/29 06:19:48;;;;;;;18.27;5.28;;;;;;;5.67;84.58;100740.31;5085160;28;20034;-66
2024/02/29 06:22:14;;;;;;;13.07;6.25;;;;;;;5.74;83.49;100746.72;5089304;28;20045;-66
2024/02/29 06:24:40;;;;;;;10.73;4.00;;;;;;;5.76;84.33;100736.50;5094421;28;20028;-66
2024/02/29 06:27:06;;;;;;;10.75;4.60;;;;;;;5.86;83.66;100746.06;5096456;28;20032;-66
2024/02/29 06:29:31;;;;;;;15.38;5.20;;;;;;;5.89;82.88;100737.41;5090546;28;20111;-66
2024/02/29 06:31:57;;;;;;;10.50;4.43;;;;;;;5.70;83.60;100735.09;5089164;28;20191;-67
2024/02/29 06:34:23;;;;;;;13.40;5.28;;;;;;;5.50;85.35;100733.91;5091301;28;20461;-67
2024/02/29 06:36:48;;;;;;;17.20;6.55;;;;;;;5.77;84.14;100740.72;5089200;28;20027;-67
2024/02/29 06:39:14;;;;;;;16.05;5.60;;;;;;;5.86;83.43;100736.19;5095055;28;20117;-67
2024/02/29 06:41:43;;;;;;;13.63;5.72;;;;;;;5.95;82.56;100733.44;5089446;28;20161;-67
2024/02/29 06:44:09;;;;;;;10.13;4.95;;;;;;;5.82;82.90;100732.53;5088251;28;20053;-67
2024/02/29 06:46:35;;;;;;;11.57;3.83;;;;;;;5.79;83.91;100737.75;5087312;28;20036;-67
2024/02/29 06:49:01;;;;;;;13.30;4.28;;;;;;;5.96;82.82;100735.03;5083302;28;20059;-67
2024/02/29 06:51:27;;;;;;;16.00;5.00;;;;;;;5.99;82.30;100732.50;5088169;28;20028;-67
2024/02/29 06:53:54;;;;;;;12.55;4.38;;;;;;;5.94;83.53;100737.25;5097006;28;20040;-67
2024/02/29 06:56:19;;;;;;;19.77;6.78;;;;;;;6.05;83.21;100725.06;5085070;28;20478;-67
2024/02/29 06:58:45;;;;;;;11.88;5.18;;;;;;;6.01;81.73;100726.81;5085161;28;20138;-67
2024/02/29 07:01:12;;;;;;;17.05;5.93;;;;;;;6.02;83.04;100723.06;5091591;28;20032;-67
2024/02/29 07:03:38;;;;;;;10.95;5.03;;;;;;;6.05;82.17;100720.50;5096303;28;20040;-67
2024/02/29 07:06:04;;;;;;;13.15;5.28;;;;;;;6.11;82.63;100734.47;5086913;28;20049;-67
2024/02/29 07:08:34;;;;;;;10.60;4.55;;;;;;;6.28;80.96;100726.34;5083007;28;20547;-67
2024/02/29 07:11:00;;;;;;;9.30;4.03;;;;;;;6.39;80.16;100722.19;5085865;28;20028;-67
2024/02/29 07:13:25;;;;;;;14.27;6.57;;;;;;;6.51;79.93;100716.91;5085497;28;20015;-67
2024/02/29 07:15:51;;;;;;;10.43;4.20;;;;;;;6.44;80.26;100719.34;5089706;28;20400;-67
2024/02/29 07:18:16;;;;;;;11.90;5.05;;;;;;;6.47;80.40;100725.91;5087641;28;20032;-67
2024/02/29 07:20:42;;;;;;;9.88;4.72;;;;;;;6.58;79.45;100709.16;5088751;28;20408;-67
2024/02/29 07:23:09;;;;;;;12.73;5.53;;;;;;;6.53;79.80;100706.69;5115880;27;20129;-67
2024/02/29 07:25:35;;;;;;;8.18;3.80;;;;;;;6.52;79.42;100707.00;5087163;28;20035;-67
2024/02/29 07:28:00;;;;;;;14.35;4.13;;;;;;;6.51;79.56;100706.22;5083688;28;20614;-67
2024/02/29 07:30:27;;;;;;;15.43;4.75;;;;;;;6.65;79.66;100703.28;5082976;28;20032;-67
2024/02/29 07:32:52;;;;;;;14.15;5.32;;;;;;;6.85;78.75;100699.81;5088217;28;20030;-67
2024/02/29 07:35:18;;;;;;;12.35;4.15;;;;;;;6.92;78.01;100700.84;5086593;28;20020;-67
2024/02/29 07:37:44;;;;;;;12.70;4.18;;;;;;;6.89;78.12;100706.84;5085186;28;20556;-67
2024/02/29 07:40:10;;;;;;;10.50;5.15;;;;;;;7.00;77.76;100702.69;5081044;28;20026;-67
2024/02/29 07:42:39;;;;;;;10.32;3.63;;;;;;;7.17;77.79;100697.16;5088862;28;20046;-67
2024/02/29 07:45:07;;;;;;;16.08;4.22;;;;;;;7.32;76.75;100707.22;5086291;28;20098;-67
2024/02/29 07:47:32;;;;;;;15.75;4.85;;;;;;;7.32;77.44;100692.28;5088172;28;20039;-66
2024/02/29 07:49:58;;;;;;;2.13;1.80;;;;;;;7.46;76.12;100698.88;5082313;28;20028;-67
2024/02/29 07:52:23;;;;;;;9.70;4.80;;;;;;;7.57;75.17;100683.94;5088473;28;20028;-67
2024/02/29 07:54:49;;;;;;;13.00;5.35;;;;;;;7.66;75.63;100690.00;5085745;28;20493;-67
2024/02/29 07:57:15;;;;;;;13.80;5.78;;;;;;;7.78;75.11;100687.28;5087214;28;20074;-67
2024/02/29 07:59:41;;;;;;;12.75;4.40;;;;;;;8.04;74.84;100684.28;5088290;28;20024;-67
2024/02/29 08:02:07;;;;;;;8.93;3.80;;;;;;;8.08;72.43;100685.19;5085136;28;20047;-67
2024/02/29 08:04:32;;;;;;;12.88;4.63;;;;;;;7.95;72.01;100683.63;5088314;28;20038;-67
2024/02/29 08:06:58;;;;;;;8.15;4.03;;;;;;;8.03;73.30;100690.78;5082159;28;20127;-67
2024/02/29 08:09:24;;;;;;;10.55;3.45;;;;;;;8.22;72.14;100677.56;5099883;28;20040;-67
2024/02/29 08:11:49;;;;;;;8.38;4.38;;;;;;;8.33;71.56;100667.94;5090242;28;20036;-67
2024/02/29 08:14:15;;;;;;;9.77;4.40;;;;;;;8.35;71.57;100671.09;5085487;28;20513;-66
2024/02/29 08:16:40;;;;;;;7.18;4.03;;;;;;;8.53;71.31;100671.59;5078339;28;20036;-67
2024/02/29 08:19:06;;;;;;;9.70;4.88;;;;;;;8.66;70.23;100668.53;5081890;28;20024;-67
2024/02/29 08:21:32;;;;;;;14.18;4.45;;;;;;;8.79;69.87;100670.03;5087593;28;21194;-67
2024/02/29 08:23:59;;;;;;;13.15;3.78;;;;;;;8.92;69.02;100678.84;5090050;28;20516;-67
2024/02/29 08:26:24;;;;;;;12.25;3.92;;;;;;;8.96;69.15;100675.09;5087974;28;20106;-67
2024/02/29 08:28:49;;;;;;;7.75;3.70;;;;;;;8.88;69.48;100667.22;5084724;28;20395;-69
2024/02/29 08:31:15;;;;;;;8.95;3.97;;;;;;;9.04;68.93;100670.69;5091043;28;20073;-66
2024/02/29 08:33:41;;;;;;;11.98;3.35;;;;;;;9.13;69.42;100668.66;5086561;28;20479;-66
2024/02/29 08:36:06;;;;;;;13.68;4.95;;;;;;;9.27;68.00;100668.25;5091920;28;20035;-67
2024/02/29 08:38:34;;;;;;;9.75;3.33;;;;;;;9.45;67.34;100672.13;5091731;28;20063;-67
2024/02/29 08:40:59;;;;;;;9.23;3.88;;;;;;;9.56;67.43;100665.91;5089623;28;20053;-67
2024/02/29 08:43:25;;;;;;;10.40;4.15;;;;;;;9.60;67.03;100655.25;5094257;28;20020;-66
2024/02/29 08:45:51;;;;;;;9.70;4.32;;;;;;;9.77;66.14;100655.69;5083278;28;20501;-67
2024/02/29 08:48:17;;;;;;;9.63;3.83;;;;;;;9.79;65.25;100652.63;5102182;27;20115;-67
2024/02/29 08:50:42;;;;;;;10.27;3.70;;;;;;;9.90;64.55;100650.97;5082319;28;20127;-67
2024/02/29 08:53:08;;;;;;;10.73;4.75;;;;;;;9.83;64.66;100659.63;5088405;28;20718;-67
2024/02/29 08:55:33;;;;;;;18.05;5.72;;;;;;;9.86;64.65;100642.03;5090566;28;20091;-67
2024/02/29 08:57:59;;;;;;;9.77;3.88;;;;;;;10.12;64.04;100647.66;5089884;28;20032;-67
2024/02/29 09:00:25;;;;;;;6.85;3.15;;;;;;;10.15;63.05;100657.72;5090634;28;20515;-67
2024/02/29 09:02:51;;;;;;;6.15;2.65;;;;;;;10.11;64.25;100648.78;5091250;28;20402;-67
2024/02/29 09:05:16;;;;;;;12.45;4.80;;;;;;;10.12;64.11;100653.03;5090894;28;20069;-66
2024/02/29 09:07:42;;;;;;;6.82;3.63;;;;;;;10.40;64.67;100639.38;5088539;28;20537;-67
2024/02/29 09:10:09;;;;;;;11.82;3.88;;;;;;;10.50;62.81;100639.63;5089748;28;20036;-67
2024/02/29 09:12:35;;;;;;;8.57;2.95;;;;;;;10.73;62.23;100648.53;5089676;28;20434;-67
2024/02/29 09:15:02;;;;;;;5.32;2.47;;;;;;;10.69;61.62;100644.22;5086939;28;20032;-66
2024/02/29 09:17:28;;;;;;;6.22;3.03;;;;;;;10.98;60.66;100640.13;5085627;28;20024;-67
2024/02/29 09:19:53;;;;;;;7.75;3.25;;;;;;;11.02;60.60;100628.28;5083764;28;20579;-66
2024/02/29 09:22:18;;;;;;;8.23;2.88;;;;;;;11.27;58.74;100636.81;5088084;28;20752;-67
2024/02/29 09:24:45;;;;;;;6.38;2.85;;;;;;;11.33;59.12;100627.28;5092912;28;20035;-67
2024/02/29 09:27:11;;;;;;;5.95;2.90;;;;;;;11.39;58.12;100628.53;5085192;28;20024;-67
2024/02/29 09:29:36;;;;;;;9.55;3.72;;;;;;;11.39;60.10;100631.25;5089169;28;20056;-66
2024/02/29 09:32:03;;;;;;;5.93;2.88;;;;;;;11.50;58.32;100629.47;5077454;28;20528;-67
2024/02/29 09:34:30;;;;;;;3.20;1.83;;;;;;;11.57;59.17;100632.31;5092407;28;20047;-66
2024/02/29 09:36:56;;;;;;;8.02;3.53;;;;;;;11.64;57.43;100625.09;5084380;28;20036;-66
2024/02/29 09:39:21;;;;;;;10.25;3.35;;;;;;;11.71;58.84;100621.78;5088612;28;20042;-66
2024/02/29 09:41:47;;;;;;;8.25;3.35;;;;;;;11.72;58.21;100623.31;5090208;28;20024;-67
2024/02/29 09:44:13;;;;;;;7.50;3.40;;;;;;;11.95;57.56;100626.75;5091852;28;20039;-66
2024/02/29 09:46:41;;;;;;;7.85;3.08;;;;;;;11.99;57.77;100616.00;5087778;28;20024;-67
2024/02/29 09:49:08;;;;;;;8.48;2.90;;;;;;;12.06;57.16;100608.00;5092092;28;20104;-66
2024/02/29 09:51:34;;;;;;;4.78;2.95;;;;;;;11.96;57.16;100604.03;5085447;28;20020;-66
2024/02/29 09:54:02;;;;;;;10.68;2.97;;;;;;;12.07;56.02;100607.63;5087252;28;20028;-67
2024/02/29 09:56:28;;;;;;;7.97;3.28;;;;;;;12.03;56.24;100598.72;5088324;28;20106;-66
2024/02/29 09:58:55;;;;;;;2.58;1.60;;;;;;;12.06;55.83;100595.28;5086624;28;20107;-67
2024/02/29 10:01:21;;;;;;;5.38;2.95;;;;;;;12.13;56.51;100587.28;5090699;28;20016;-66
2024/02/29 10:03:47;;;;;;;9.73;2.88;;;;;;;12.18;55.97;100575.38;5090742;28;20489;-66
2024/02/29 10:06:13;;;;;;;6.63;2.42;;;;;;;12.23;55.58;100583.91;5091290;28;20030;-66
2024/02/29 10:08:39;;;;;;;8.75;2.88;;;;;;;12.18;55.96;100581.56;5092356;28;20093;-66
2024/02/29 10:11:05;;;;;;;8.35;3.13;;;;;;;12.24;56.04;100579.31;5087776;28;20028;-67
2024/02/29 10:13:38;;;;;;;5.50;2.22;;;;;;;12.29;55.71;100574.34;5086632;28;20031;-66
2024/02/29 10:16:06;;;;;;;7.55;3.03;;;;;;;12.32;54.89;100592.53;5082116;28;20039;-67
2024/02/29 10:18:33;;;;;;;9.20;3.17;;;;;;;12.20;55.30;100578.47;5082218;28;20054;-66
2024/02/29 10:20:58;;;;;;;3.17;2.13;;;;;;;11.96;56.16;100585.13;5089163;28;20043;-66
2024/02/29 10:23:28;;;;;;;3.55;2.25;;;;;;;12.04;55.99;100583.31;5095381;28;20504;-66
2024/02/29 10:25:53;;;;;;;4.82;2.65;;;;;;;12.28;55.47;100572.81;5088284;28;20066;-66
2024/02/29 10:28:20;;;;;;;3.80;1.95;;;;;;;12.48;55.28;100568.81;5088548;28;20040;-67
2024/02/29 10:30:57;;;;;;;5.97;2.70;;;;;;;12.48;55.30;100576.91;5089691;28;20028;-66
2024/02/29 10:33:24;;;;;;;4.78;2.28;;;;;;;12.54;55.14;100566.56;5090246;28;20114;-67
2024/02/29 10:35:49;;;;;;;6.93;2.83;;;;;;;12.78;54.24;100565.22;5071164;28;20068;-66
2024/02/29 10:38:14;;;;;;;4.72;2.30;;;;;;;12.86;54.96;100569.56;5090035;28;20440;-66
2024/02/29 10:40:40;;;;;;;4.22;2.15;;;;;;;13.09;52.97;100559.38;5095796;28;20113;-66
2024/02/29 10:43:11;;;;;;;6.65;2.95;;;;;;;13.17;52.97;100561.00;5086489;28;20035;-67
2024/02/29 10:45:45;;;;;;;7.18;3.13;;;;;;;13.03;52.90;100561.66;5084720;28;20036;-66
2024/02/29 10:48:38;;;;;;;3.10;2.17;;;;;;;13.06;53.14;100560.13;5090002;28;20032;-66
2024/02/29 10:51:19;;;;;;;8.82;3.05;;;;;;;13.13;52.46;100549.38;5115454;27;20513;-66
2024/02/29 10:54:14;;;;;;;3.40;2.30;;;;;;;13.19;52.57;100548.66;5089640;28;20032;-66
2024/02/29 10:56:42;;;;;;;5.60;2.33;;;;;;;13.26;52.67;100553.31;5090907;28;20290;-66
2024/02/29 10:59:08;;;;;;;7.00;1.88;;;;;;;13.21;52.61;100550.97;5086151;28;20122;-66
2024/02/29 11:01:36;;;;;;;4.35;1.83;;;;;;;13.25;53.75;100559.91;5088852;28;20027;-67
2024/02/29 11:04:01;;;;;;;5.95;2.10;;;;;;;13.22;52.94;100541.72;5081818;27;20039;-66
2024/02/29 11:06:32;;;;;;;6.80;2.25;;;;;;;13.41;51.92;100544.19;5094401;28;20031;-66
2024/02/29 11:08:58;;;;;;;3.08;2.10;;;;;;;13.37;51.57;100537.97;5087830;28;20042;-67
2024/02/29 11:11:29;;;;;;;3.60;1.55;;;;;;;13.51;52.65;100536.13;5089598;28;20020;-66
2024/02/29 11:14:10;;;;;;;9.65;2.83;;;;;;;13.65;51.74;100529.25;5112426;27;20053;-67
2024/02/29 11:16:42;;;;;;;;;;;;;;;13.73;51.52;100523.50;5105279;27;20127;-66
2024/02/29 11:19:18;;;;;;;4.90;2.20;;;;;;;13.52;52.25;100516.06;5086640;28;19912;-66
2024/02/29 11:21:47;;;;;;;4.68;2.03;;;;;;;13.80;51.95;100526.22;5083084;28;20036;-66